createdAt,value
2023-04-27T00:00:10.858Z,1.97
2023-04-27T00:02:39.967Z,1.90
2023-04-27T00:05:08.445Z,2.17
2023-04-27T00:07:36.481Z,1.60
2023-04-27T00:10:04.190Z,1.60
2023-04-27T00:12:31.885Z,2.00
2023-04-27T00:14:59.534Z,1.80
2023-04-27T00:17:27.216Z,1.83
2023-04-27T00:19:56.199Z,1.80
2023-04-27T00:22:23.811Z,1.80
2023-04-27T00:24:51.407Z,1.70
2023-04-27T00:27:19.125Z,1.57
2023-04-27T00:29:46.706Z,1.33
2023-04-27T00:32:14.316Z,1.77
2023-04-27T00:34:41.993Z,1.30
2023-04-27T00:37:11.126Z,1.50
2023-04-27T00:39:38.713Z,1.60
2023-04-27T00:42:06.856Z,1.40
2023-04-27T00:44:34.786Z,1.50
2023-04-27T00:47:02.392Z,1.47
2023-04-27T00:49:30.694Z,1.60
2023-04-27T00:51:58.429Z,1.80
2023-04-27T00:54:27.546Z,1.47
2023-04-27T00:56:55.472Z,1.57
2023-04-27T00:59:23.061Z,1.50
2023-04-27T01:01:51.065Z,1.60
2023-04-27T01:04:18.942Z,1.47
2023-04-27T01:06:46.695Z,1.50
2023-04-27T01:09:14.736Z,1.60
2023-04-27T01:11:43.881Z,1.50
2023-04-27T01:14:11.564Z,1.50
2023-04-27T01:16:39.300Z,1.40
2023-04-27T01:19:08.467Z,1.63
2023-04-27T01:21:36.123Z,1.33
2023-04-27T01:24:07.305Z,1.67
2023-04-27T01:26:35.155Z,1.50
2023-04-27T01:29:02.877Z,1.33
2023-04-27T01:31:30.574Z,1.27
2023-04-27T01:33:58.235Z,2.00
2023-04-27T01:36:27.706Z,1.30
2023-04-27T01:38:55.351Z,1.50
2023-04-27T01:41:25.646Z,1.30
2023-04-27T01:43:53.279Z,1.30
2023-04-27T01:46:20.924Z,1.60
2023-04-27T01:48:48.566Z,1.30
2023-04-27T01:51:16.215Z,1.40
2023-04-27T01:53:44.157Z,1.27
2023-04-27T01:56:11.796Z,1.40
2023-04-27T01:58:40.723Z,1.47
2023-04-27T02:01:08.326Z,1.40
2023-04-27T02:03:36.053Z,1.50
2023-04-27T02:06:03.811Z,1.30
2023-04-27T02:08:31.435Z,1.53
2023-04-27T02:10:59.005Z,1.50
2023-04-27T02:13:26.598Z,1.53
2023-04-27T02:15:56.217Z,1.60
2023-04-27T02:18:24.380Z,1.63
2023-04-27T02:20:51.975Z,1.17
2023-04-27T02:23:19.554Z,1.30
2023-04-27T02:25:47.143Z,1.47
2023-04-27T02:28:14.829Z,1.40
2023-04-27T02:30:42.896Z,1.40
2023-04-27T02:33:11.854Z,1.17
2023-04-27T02:35:39.467Z,1.43
2023-04-27T02:38:07.094Z,1.40
2023-04-27T02:40:34.931Z,1.57
2023-04-27T02:43:02.481Z,1.70
2023-04-27T02:45:30.080Z,1.93
2023-04-27T02:47:58.257Z,1.40
2023-04-27T02:50:27.241Z,1.33
2023-04-27T02:52:55.307Z,1.37
2023-04-27T02:55:22.900Z,1.40
2023-04-27T02:57:50.548Z,1.23
2023-04-27T03:00:18.916Z,1.37
2023-04-27T03:02:46.704Z,1.27
2023-04-27T03:05:14.394Z,1.10
2023-04-27T03:07:43.418Z,1.60
2023-04-27T03:10:11.533Z,1.20
2023-04-27T03:12:39.170Z,1.30
2023-04-27T03:15:07.864Z,1.20
2023-04-27T03:17:35.466Z,1.07
2023-04-27T03:20:04.899Z,1.23
2023-04-27T03:22:32.665Z,1.40
2023-04-27T03:25:01.598Z,1.60
2023-04-27T03:27:29.244Z,1.30
2023-04-27T03:29:56.818Z,1.20
2023-04-27T03:32:24.445Z,1.30
2023-04-27T03:34:52.305Z,1.20
2023-04-27T03:37:19.924Z,1.17
2023-04-27T03:39:47.591Z,1.50
2023-04-27T03:42:16.571Z,1.20
2023-04-27T03:44:44.124Z,1.23
2023-04-27T03:47:11.708Z,1.17
2023-04-27T03:49:39.305Z,1.40
2023-04-27T03:52:06.887Z,1.30
2023-04-27T03:54:34.620Z,1.27
2023-04-27T03:57:02.553Z,1.17
2023-04-27T03:59:31.564Z,1.20
2023-04-27T04:02:01.160Z,1.20
2023-04-27T04:04:29.454Z,1.00
2023-04-27T04:06:57.250Z,0.93
2023-04-27T04:09:24.862Z,1.10
2023-04-27T04:11:52.837Z,1.20
2023-04-27T04:14:20.424Z,1.43
2023-04-27T04:16:49.359Z,1.30
2023-04-27T04:19:17.107Z,1.10
2023-04-27T04:21:44.824Z,1.20
2023-04-27T04:24:12.400Z,1.00
2023-04-27T04:26:40.146Z,1.40
2023-04-27T04:29:09.597Z,1.10
2023-04-27T04:31:38.661Z,1.40
2023-04-27T04:34:08.584Z,1.13
2023-04-27T04:36:36.156Z,0.93
2023-04-27T04:39:04.310Z,1.30
2023-04-27T04:41:32.298Z,1.33
2023-04-27T04:44:00.660Z,1.27
2023-04-27T04:46:28.581Z,1.40
2023-04-27T04:48:56.341Z,1.07
2023-04-27T04:51:25.441Z,1.33
2023-04-27T04:53:53.037Z,1.20
2023-04-27T04:56:21.165Z,1.23
2023-04-27T04:58:48.814Z,1.10
2023-04-27T05:01:16.442Z,1.10
2023-04-27T05:03:44.304Z,1.23
2023-04-27T05:06:12.085Z,1.17
2023-04-27T05:08:41.105Z,1.20
2023-04-27T05:11:08.673Z,1.00
2023-04-27T05:13:38.256Z,1.03
2023-04-27T05:16:06.471Z,1.17
2023-04-27T05:18:34.297Z,1.20
2023-04-27T05:21:02.180Z,1.10
2023-04-27T05:23:29.760Z,1.13
2023-04-27T05:25:58.730Z,1.10
2023-04-27T05:28:26.323Z,1.17
2023-04-27T05:30:53.956Z,1.20
2023-04-27T05:33:22.201Z,1.50
2023-04-27T05:35:49.889Z,1.03
2023-04-27T05:38:17.559Z,1.10
2023-04-27T05:40:45.212Z,1.30
2023-04-27T05:43:14.132Z,0.90
2023-04-27T05:45:41.953Z,1.00
2023-04-27T05:48:09.588Z,1.30
2023-04-27T05:50:37.152Z,1.40
2023-04-27T05:53:05.607Z,1.13
2023-04-27T05:55:33.261Z,1.33
2023-04-27T05:58:08.637Z,1.00
2023-04-27T06:00:38.476Z,1.20
2023-04-27T06:03:06.400Z,1.10
2023-04-27T06:05:34.781Z,1.47
2023-04-27T06:08:02.719Z,1.20
2023-04-27T06:10:30.415Z,1.63
2023-04-27T06:12:57.965Z,1.50
2023-04-27T06:15:25.713Z,1.40
2023-04-27T06:17:54.655Z,1.40
2023-04-27T06:20:22.671Z,1.30
2023-04-27T06:22:50.279Z,1.53
2023-04-27T06:25:17.864Z,1.30
2023-04-27T06:27:45.480Z,1.70
2023-04-27T06:30:13.956Z,1.40
2023-04-27T06:32:41.602Z,1.40
2023-04-27T06:35:11.777Z,1.37
2023-04-27T06:37:39.482Z,1.70
2023-04-27T06:40:08.348Z,1.27
2023-04-27T06:42:36.324Z,1.70
2023-04-27T06:45:04.709Z,1.60
2023-04-27T06:47:32.362Z,1.47
2023-04-27T06:50:00.500Z,1.60
2023-04-27T06:52:29.553Z,1.33
2023-04-27T06:54:57.429Z,1.50
2023-04-27T06:57:25.035Z,1.63
2023-04-27T06:59:52.830Z,1.50
2023-04-27T07:02:20.443Z,1.57
2023-04-27T07:04:48.159Z,1.53
2023-04-27T07:07:15.794Z,1.50
2023-04-27T07:09:44.757Z,1.43
2023-04-27T07:12:12.458Z,1.50
2023-04-27T07:14:40.054Z,1.60
2023-04-27T07:17:07.899Z,1.63
2023-04-27T07:19:35.958Z,1.60
2023-04-27T07:22:04.008Z,1.53
2023-04-27T07:24:31.574Z,1.60
2023-04-27T07:27:02.689Z,1.50
2023-04-27T07:29:30.870Z,1.50
2023-04-27T07:31:58.852Z,1.50
2023-04-27T07:34:29.122Z,1.70
2023-04-27T07:36:58.462Z,1.63
2023-04-27T07:39:26.668Z,1.60
2023-04-27T07:41:54.806Z,1.80
2023-04-27T07:44:23.729Z,2.27
2023-04-27T07:46:54.071Z,1.70
2023-04-27T07:49:21.803Z,1.90
2023-04-27T07:51:49.518Z,1.70
2023-04-27T07:54:17.115Z,2.00
2023-04-27T07:56:44.750Z,1.80
2023-04-27T07:59:12.945Z,1.70
2023-04-27T08:01:42.139Z,2.00
2023-04-27T08:04:10.040Z,1.40
2023-04-27T08:06:38.432Z,2.00
2023-04-27T08:09:06.844Z,1.90
2023-04-27T08:11:34.472Z,1.70
2023-04-27T08:14:02.088Z,1.97
2023-04-27T08:16:29.773Z,1.90
2023-04-27T08:19:00.571Z,2.00
2023-04-27T08:21:30.474Z,1.80
2023-04-27T08:23:58.105Z,1.80
2023-04-27T08:26:26.461Z,1.63
2023-04-27T08:28:54.161Z,1.83
2023-04-27T08:31:22.110Z,1.97
2023-04-27T08:33:50.030Z,1.90
2023-04-27T08:36:19.845Z,1.70
2023-04-27T08:38:47.613Z,1.90
2023-04-27T08:41:21.886Z,1.77
2023-04-27T08:43:50.759Z,1.83
2023-04-27T08:46:22.180Z,1.97
2023-04-27T08:48:51.707Z,1.87
2023-04-27T08:51:21.878Z,1.93
2023-04-27T08:53:51.565Z,1.73
2023-04-27T08:56:19.966Z,2.00
2023-04-27T08:58:47.620Z,2.00
2023-04-27T09:01:16.159Z,1.97
2023-04-27T09:03:46.671Z,1.97
2023-04-27T09:06:15.296Z,2.00
2023-04-27T09:08:45.819Z,2.00
2023-04-27T09:11:13.981Z,1.60
2023-04-27T09:13:45.082Z,2.23
2023-04-27T09:16:13.976Z,2.00
2023-04-27T09:18:44.202Z,1.93
2023-04-27T09:21:11.881Z,1.70
2023-04-27T09:23:40.695Z,2.03
2023-04-27T09:26:09.687Z,2.20
2023-04-27T09:28:41.195Z,1.93
2023-04-27T09:31:10.734Z,1.70
2023-04-27T09:33:38.301Z,1.90
2023-04-27T09:36:07.416Z,2.00
2023-04-27T09:38:35.066Z,2.07
2023-04-27T09:41:03.237Z,1.80
2023-04-27T09:43:32.856Z,1.87
2023-04-27T09:46:01.563Z,2.00
2023-04-27T09:48:29.217Z,2.10
2023-04-27T09:50:57.524Z,1.73
2023-04-27T09:53:31.959Z,2.20
2023-04-27T09:56:17.800Z,2.30
2023-04-27T09:59:03.876Z,1.80
2023-04-27T10:01:37.627Z,2.00
2023-04-27T10:04:22.293Z,1.87
2023-04-27T10:07:01.220Z,1.90
2023-04-27T10:09:35.325Z,1.93
2023-04-27T10:12:15.976Z,1.70
2023-04-27T10:14:55.492Z,2.53
2023-04-27T10:17:30.066Z,1.80
2023-04-27T10:19:59.562Z,1.67
2023-04-27T10:22:40.064Z,2.03
2023-04-27T10:25:22.011Z,1.90
2023-04-27T10:27:52.159Z,2.30
2023-04-27T10:30:22.666Z,2.30
2023-04-27T10:32:55.133Z,2.60
2023-04-27T10:35:23.608Z,1.90
2023-04-27T10:37:52.220Z,1.80
2023-04-27T10:40:19.973Z,2.40
2023-04-27T10:42:49.655Z,1.90
2023-04-27T10:45:31.414Z,1.70
2023-04-27T10:48:02.056Z,2.27
2023-04-27T10:50:30.103Z,2.30
2023-04-27T10:53:01.704Z,1.80
2023-04-27T10:55:29.821Z,2.00
2023-04-27T10:57:58.182Z,1.90
2023-04-27T11:00:27.178Z,1.83
2023-04-27T11:02:57.374Z,2.10
2023-04-27T11:05:29.660Z,2.00
2023-04-27T11:08:06.963Z,1.77
2023-04-27T11:10:35.704Z,2.30
2023-04-27T11:13:11.261Z,2.13
2023-04-27T11:15:46.845Z,1.90
2023-04-27T11:18:17.224Z,2.00
2023-04-27T11:20:46.130Z,1.90
2023-04-27T11:23:24.511Z,2.27
2023-04-27T11:25:52.334Z,1.90
2023-04-27T11:28:20.450Z,2.10
2023-04-27T11:30:49.342Z,2.17
2023-04-27T11:33:18.281Z,1.60
2023-04-27T11:35:46.127Z,1.77
2023-04-27T11:38:18.253Z,1.70
2023-04-27T11:40:46.170Z,2.20
2023-04-27T11:43:14.529Z,1.90
2023-04-27T11:45:46.281Z,1.97
2023-04-27T11:48:18.209Z,1.90
2023-04-27T11:50:48.407Z,1.73
2023-04-27T11:53:18.547Z,2.00
2023-04-27T11:55:53.322Z,1.70
2023-04-27T11:58:22.262Z,2.03
2023-04-27T12:00:49.901Z,1.80
2023-04-27T12:03:19.082Z,1.90
2023-04-27T12:05:50.795Z,1.87
2023-04-27T12:08:18.777Z,1.63
2023-04-27T12:10:47.196Z,1.87
2023-04-27T12:13:15.206Z,2.20
2023-04-27T12:15:43.381Z,2.00
2023-04-27T12:18:11.302Z,2.10
2023-04-27T12:20:41.156Z,2.00
2023-04-27T12:23:08.743Z,1.70
2023-04-27T12:25:36.342Z,1.50
2023-04-27T12:28:04.190Z,2.30
2023-04-27T12:30:31.819Z,2.33
2023-04-27T12:33:00.815Z,1.83
2023-04-27T12:35:31.821Z,2.17
2023-04-27T12:38:01.099Z,2.00
2023-04-27T12:40:30.862Z,2.30
2023-04-27T12:43:01.292Z,1.90
2023-04-27T12:45:30.755Z,2.03
2023-04-27T12:48:03.995Z,1.90
2023-04-27T12:50:34.444Z,1.90
2023-04-27T12:53:03.503Z,1.90
2023-04-27T12:55:33.552Z,2.20
2023-04-27T12:58:02.521Z,1.63
2023-04-27T13:00:30.455Z,1.83
2023-04-27T13:02:58.385Z,2.37
2023-04-27T13:05:26.452Z,1.80
2023-04-27T13:07:54.300Z,2.00
2023-04-27T13:10:23.310Z,2.10
2023-04-27T13:12:51.101Z,1.70
2023-04-27T13:15:18.789Z,2.00
2023-04-27T13:17:46.470Z,1.90
2023-04-27T13:20:15.389Z,1.70
2023-04-27T13:22:43.405Z,1.80
2023-04-27T13:25:11.142Z,2.10
2023-04-27T13:27:40.193Z,2.13
2023-04-27T13:30:09.595Z,1.90
2023-04-27T13:32:37.388Z,2.00
2023-04-27T13:35:05.464Z,2.00
2023-04-27T13:37:33.435Z,1.70
2023-04-27T13:40:01.159Z,2.20
2023-04-27T13:42:29.546Z,1.60
2023-04-27T13:44:58.646Z,1.70
2023-04-27T13:47:26.337Z,2.17
2023-04-27T13:49:54.268Z,2.07
2023-04-27T13:52:21.933Z,1.77
2023-04-27T13:54:49.534Z,2.00
2023-04-27T13:57:17.091Z,2.13
2023-04-27T13:59:44.686Z,1.87
2023-04-27T14:02:14.652Z,1.97
2023-04-27T14:04:42.384Z,2.03
2023-04-27T14:07:09.989Z,2.00
2023-04-27T14:09:37.581Z,1.90
2023-04-27T14:12:05.504Z,2.50
2023-04-27T14:14:33.180Z,1.87
2023-04-27T14:17:00.868Z,1.70
2023-04-27T14:19:29.865Z,2.17
2023-04-27T14:21:57.703Z,2.00
2023-04-27T14:24:25.384Z,1.90
2023-04-27T14:26:53.118Z,2.10
2023-04-27T14:29:21.171Z,1.60
2023-04-27T14:31:50.190Z,1.77
2023-04-27T14:34:20.150Z,1.90
2023-04-27T14:36:50.468Z,1.90
2023-04-27T14:39:18.216Z,1.93
2023-04-27T14:41:45.915Z,1.83
2023-04-27T14:44:13.558Z,1.87
2023-04-27T14:46:41.200Z,1.90
2023-04-27T14:49:08.867Z,1.70
2023-04-27T14:51:36.454Z,1.90
2023-04-27T14:54:05.477Z,1.77
2023-04-27T14:56:33.669Z,1.87
2023-04-27T14:59:01.455Z,1.97
2023-04-27T15:01:29.058Z,1.50
2023-04-27T15:03:58.075Z,1.83
2023-04-27T15:06:28.083Z,1.97
2023-04-27T15:08:55.739Z,2.00
2023-04-27T15:11:24.727Z,1.93
2023-04-27T15:13:52.297Z,1.77
2023-04-27T15:16:20.430Z,1.90
2023-04-27T15:18:48.204Z,2.37
2023-04-27T15:21:15.851Z,1.53
2023-04-27T15:23:43.509Z,2.00
2023-04-27T15:26:11.104Z,2.00
2023-04-27T15:28:40.075Z,1.60
2023-04-27T15:31:08.243Z,1.50
2023-04-27T15:33:35.922Z,1.67
2023-04-27T15:36:03.751Z,1.90
2023-04-27T15:38:31.446Z,2.03
2023-04-27T15:40:59.155Z,1.97
2023-04-27T15:43:26.811Z,1.90
2023-04-27T15:45:56.135Z,1.87
2023-04-27T15:48:23.748Z,1.70
2023-04-27T15:50:51.391Z,1.90
2023-04-27T15:53:18.984Z,1.93
2023-04-27T15:55:46.804Z,1.60
2023-04-27T15:58:14.424Z,2.17
2023-04-27T16:00:42.029Z,2.13
2023-04-27T16:03:13.210Z,2.20
2023-04-27T16:05:41.269Z,2.00
2023-04-27T16:08:09.145Z,1.57
2023-04-27T16:10:36.988Z,1.80
2023-04-27T16:13:04.900Z,1.97
2023-04-27T16:15:33.215Z,2.20
2023-04-27T16:18:02.289Z,2.03
2023-04-27T16:20:32.333Z,1.80
2023-04-27T16:23:00.688Z,1.70
2023-04-27T16:25:28.764Z,1.97
2023-04-27T16:27:59.600Z,1.87
2023-04-27T16:30:27.252Z,1.77
2023-04-27T16:32:55.774Z,1.73
2023-04-27T16:35:23.628Z,1.83
2023-04-27T16:37:53.826Z,1.90
2023-04-27T16:40:21.794Z,1.73
2023-04-27T16:42:49.370Z,1.90
2023-04-27T16:45:17.170Z,2.17
2023-04-27T16:47:46.347Z,1.90
2023-04-27T16:50:14.222Z,1.80
2023-04-27T16:52:41.868Z,1.80
2023-04-27T16:55:11.150Z,1.90
2023-04-27T16:57:38.798Z,1.97
2023-04-27T17:00:09.602Z,2.00
2023-04-27T17:02:37.414Z,1.70
2023-04-27T17:05:05.456Z,1.90
2023-04-27T17:07:33.514Z,1.83
2023-04-27T17:10:01.293Z,1.83
2023-04-27T17:12:30.276Z,2.17
2023-04-27T17:14:57.876Z,1.53
2023-04-27T17:17:25.476Z,2.10
2023-04-27T17:19:53.412Z,2.20
2023-04-27T17:22:21.161Z,1.90
2023-04-27T17:24:48.819Z,1.90
2023-04-27T17:27:16.638Z,1.63
2023-04-27T17:29:45.632Z,2.27
2023-04-27T17:32:13.276Z,1.90
2023-04-27T17:34:42.959Z,1.70
2023-04-27T17:37:10.787Z,1.90
2023-04-27T17:39:38.705Z,1.80
2023-04-27T17:42:06.786Z,2.00
2023-04-27T17:44:35.230Z,2.00
2023-04-27T17:47:04.184Z,2.07
2023-04-27T17:49:32.786Z,2.30
2023-04-27T17:52:00.615Z,2.10
2023-04-27T17:54:30.076Z,1.60
2023-04-27T17:56:58.055Z,1.90
2023-04-27T17:59:25.989Z,2.10
2023-04-27T18:01:53.676Z,2.47
2023-04-27T18:04:22.960Z,2.30
2023-04-27T18:06:51.362Z,1.80
2023-04-27T18:09:18.959Z,1.73
2023-04-27T18:11:46.560Z,1.87
2023-04-27T18:14:14.179Z,1.90
2023-04-27T18:16:42.857Z,1.80
2023-04-27T18:19:11.040Z,1.90
2023-04-27T18:21:39.995Z,1.67
2023-04-27T18:24:08.202Z,2.07
2023-04-27T18:26:36.507Z,1.77
2023-04-27T18:29:04.399Z,2.30
2023-04-27T18:31:32.070Z,1.60
2023-04-27T18:34:00.369Z,2.03
2023-04-27T18:36:28.570Z,1.63
2023-04-27T18:38:58.313Z,1.90
2023-04-27T18:41:28.366Z,1.90
2023-04-27T18:44:06.730Z,1.77
2023-04-27T18:46:36.089Z,1.97
2023-04-27T18:49:05.434Z,2.07
2023-04-27T18:51:34.857Z,2.10
2023-04-27T18:56:36.434Z,1.70
2023-04-27T18:59:06.105Z,2.10
2023-04-27T19:01:37.261Z,1.90
2023-04-27T19:04:07.533Z,2.10
2023-04-27T19:06:37.160Z,2.07
2023-04-27T19:09:09.448Z,1.97
2023-04-27T19:11:39.238Z,1.90
2023-04-27T19:14:09.254Z,2.20
2023-04-27T19:16:38.598Z,1.83
2023-04-27T19:19:08.032Z,2.00
2023-04-27T19:21:39.390Z,2.20
2023-04-27T19:24:10.698Z,2.50
2023-04-27T19:26:40.019Z,1.70
2023-04-27T19:29:09.425Z,1.80
2023-04-27T19:31:38.787Z,2.00
2023-04-27T19:34:07.947Z,1.80
2023-04-27T19:36:37.112Z,1.87
2023-04-27T19:39:06.618Z,2.23
2023-04-27T19:41:37.235Z,1.80
2023-04-27T19:44:06.648Z,2.10
2023-04-27T19:46:35.862Z,1.80
2023-04-27T19:49:05.023Z,2.10
2023-04-27T19:51:34.288Z,1.73
2023-04-27T19:54:03.621Z,2.27
2023-04-27T19:56:32.879Z,1.90
2023-04-27T19:59:03.506Z,1.90
2023-04-27T20:01:34.238Z,2.20
2023-04-27T20:04:03.475Z,2.03
2023-04-27T20:06:32.749Z,2.00
2023-04-27T20:09:02.141Z,2.00
2023-04-27T20:11:31.443Z,2.10
2023-04-27T20:14:00.552Z,2.00
2023-04-27T20:16:31.765Z,1.80
2023-04-27T20:19:00.980Z,1.87
2023-04-27T20:21:30.549Z,1.90
2023-04-27T20:24:00.016Z,2.03
2023-04-27T20:26:30.238Z,2.20
2023-04-27T20:28:59.628Z,2.00
2023-04-27T20:31:30.517Z,2.07
2023-04-27T20:33:59.755Z,1.80
2023-04-27T20:36:28.818Z,1.80
2023-04-27T20:39:01.178Z,1.90
2023-04-27T20:41:30.926Z,2.03
2023-04-27T20:44:00.587Z,1.87
2023-04-27T20:46:31.737Z,1.90
2023-04-27T20:49:01.040Z,1.97
2023-04-27T20:51:30.155Z,1.80
2023-04-27T20:53:59.477Z,2.37
2023-04-27T20:56:31.076Z,1.90
2023-04-27T20:59:00.843Z,2.20
2023-04-27T21:01:31.667Z,2.23
2023-04-27T21:04:01.458Z,2.07
2023-04-27T21:06:30.717Z,2.00
2023-04-27T21:09:00.859Z,2.00
2023-04-27T21:11:30.065Z,1.87
2023-04-27T21:13:59.246Z,2.00
2023-04-27T21:16:28.667Z,2.17
2023-04-27T21:18:59.371Z,2.03
2023-04-27T21:21:28.495Z,2.10
2023-04-27T21:24:07.367Z,2.00
2023-04-27T21:26:37.553Z,1.87
2023-04-27T21:29:08.050Z,1.90
2023-04-27T21:31:36.262Z,2.10
2023-04-27T21:34:05.339Z,1.80
2023-04-27T21:36:33.941Z,2.13
2023-04-27T21:39:01.567Z,2.00
2023-04-27T21:41:29.230Z,1.83
2023-04-27T21:43:56.877Z,2.30
2023-04-27T21:46:24.620Z,2.17
2023-04-27T21:48:52.337Z,2.17
2023-04-27T21:51:21.298Z,2.30
2023-04-27T21:53:48.879Z,1.93
2023-04-27T21:56:16.485Z,1.60
2023-04-27T21:58:44.095Z,1.90
2023-04-27T22:01:12.627Z,2.00
2023-04-27T22:03:40.691Z,2.13
2023-04-27T22:06:09.028Z,2.00
2023-04-27T22:08:38.023Z,1.90
2023-04-27T22:11:06.170Z,2.10
2023-04-27T22:13:34.219Z,1.77
2023-04-27T22:16:01.860Z,2.07
2023-04-27T22:18:29.655Z,2.40
2023-04-27T22:20:58.207Z,1.90
2023-04-27T22:23:25.954Z,2.13
2023-04-27T22:25:54.918Z,2.00
2023-04-27T22:28:22.511Z,2.00
2023-04-27T22:30:50.190Z,1.87
2023-04-27T22:33:18.346Z,1.80
2023-04-27T22:35:46.228Z,1.80
2023-04-27T22:38:14.021Z,1.73
2023-04-27T22:40:41.787Z,1.90
2023-04-27T22:43:10.746Z,1.70
2023-04-27T22:45:39.031Z,1.87
2023-04-27T22:48:07.324Z,1.90
2023-04-27T22:50:35.095Z,2.10
2023-04-27T22:53:03.602Z,1.97
2023-04-27T22:55:31.332Z,2.00
2023-04-27T22:57:58.893Z,2.10
2023-04-27T23:00:27.889Z,1.80
2023-04-27T23:02:55.584Z,2.17
2023-04-27T23:05:23.465Z,1.87
2023-04-27T23:07:51.791Z,1.80
2023-04-27T23:10:19.758Z,1.70
2023-04-27T23:12:47.484Z,2.00
2023-04-27T23:15:15.212Z,1.80
2023-04-27T23:17:44.202Z,2.27
2023-04-27T23:20:24.510Z,1.90
2023-04-27T23:22:56.132Z,2.00
2023-04-27T23:25:23.854Z,1.67
2023-04-27T23:27:52.424Z,1.80
2023-04-27T23:30:21.045Z,1.70
2023-04-27T23:32:50.115Z,1.93
2023-04-27T23:35:18.020Z,1.63
2023-04-27T23:37:45.721Z,1.80
2023-04-27T23:40:16.246Z,1.90
2023-04-27T23:42:43.862Z,2.00
2023-04-27T23:45:12.319Z,1.97
2023-04-27T23:47:39.956Z,2.10
2023-04-27T23:50:09.760Z,1.73
2023-04-27T23:52:37.390Z,1.40
2023-04-27T23:55:05.650Z,1.80
2023-04-27T23:57:33.253Z,1.97
